Time;durP1;ratioP1;P1;durP2;ratioP2;P2;SDS_P1;SDS_P2;PMS_P1;PMS_P2;Temp;Humidity;BMP_temperature;BMP_pressure;BME280_temperature;BME280_humidity;BME280_pressure;Samples;Min_cycle;Max_cycle;Signal;HPM_P1;HPM_P2
2022/05/16 00:02:41;;;;;;;5.85;2.30;;;16.10;99.90;;;;;;7359061;32;20169;-61
2022/05/16 00:06:42;;;;;;;8.55;2.95;;;15.90;99.90;;;;;;7357904;32;20247;-61
2022/05/16 00:10:44;;;;;;;9.05;2.92;;;15.70;99.90;;;;;;7358089;32;20149;-61
2022/05/16 00:14:46;;;;;;;6.75;2.45;;;15.40;99.90;;;;;;7342171;32;20137;-62
2022/05/16 00:18:48;;;;;;;8.63;2.92;;;15.20;99.90;;;;;;7355368;32;20142;-62
2022/05/16 00:22:50;;;;;;;4.72;2.75;;;14.90;99.90;;;;;;7357493;32;20095;-61
2022/05/16 00:26:57;;;;;;;9.55;3.30;;;14.80;99.90;;;;;;7343588;32;20427;-61
2022/05/16 00:30:59;;;;;;;9.40;3.07;;;14.50;99.90;;;;;;7353557;32;20125;-61
2022/05/16 00:35:02;;;;;;;5.90;3.00;;;14.40;99.90;;;;;;7352923;32;20239;-61
2022/05/16 00:39:03;;;;;;;7.15;2.65;;;14.30;99.90;;;;;;7352711;32;20154;-61
2022/05/16 00:43:09;;;;;;;10.60;2.90;;;14.10;99.90;;;;;;7356141;32;20452;-61
2022/05/16 00:47:11;;;;;;;6.65;2.75;;;14.10;99.90;;;;;;7356157;32;20111;-61
2022/05/16 00:51:34;;;;;;;7.00;2.87;;;14.10;99.90;;;;;;7358999;32;20164;-60
2022/05/16 00:55:37;;;;;;;4.50;2.90;;;14.10;99.90;;;;;;7361941;32;20102;-61
2022/05/16 01:00:07;;;;;;;6.62;2.95;;;14.00;99.90;;;;;;7345796;32;20111;-61
2022/05/16 01:08:33;;;;;;;9.88;3.20;;;13.80;99.90;;;;;;7365830;32;20429;-62
2022/05/16 01:12:40;;;;;;;7.65;3.22;;;13.80;99.90;;;;;;7364374;32;20430;-61
2022/05/16 01:16:41;;;;;;;7.32;3.25;;;13.80;99.90;;;;;;7357077;32;20122;-62
2022/05/16 01:20:55;;;;;;;6.15;3.30;;;13.80;99.90;;;;;;7345719;32;20111;-61
2022/05/16 01:25:11;;;;;;;11.95;3.20;;;13.80;99.90;;;;;;7358184;32;20859;-62
2022/05/16 01:29:13;;;;;;;5.03;2.62;;;13.80;99.90;;;;;;7342528;32;20348;-62
2022/05/16 01:33:19;;;;;;;6.50;2.70;;;13.90;99.90;;;;;;7354401;32;20123;-61
2022/05/16 01:38:18;;;;;;;7.35;2.62;;;14.10;99.90;;;;;;7361155;32;20121;-60
2022/05/16 01:41:43;;;;;;;7.62;2.33;;;14.30;99.90;;;;;;7359122;32;20107;-61
2022/05/16 01:45:45;;;;;;;7.15;2.45;;;14.50;99.90;;;;;;7356410;32;20734;-60
2022/05/16 01:49:47;;;;;;;9.02;3.00;;;14.70;99.90;;;;;;7357226;32;20099;-61
2022/05/16 01:53:49;;;;;;;5.97;2.40;;;14.80;99.90;;;;;;7357938;32;20111;-61
2022/05/16 01:57:51;;;;;;;6.32;2.70;;;14.80;99.90;;;;;;7359952;32;20107;-61
2022/05/16 02:01:52;;;;;;;8.43;2.67;;;14.80;99.90;;;;;;7348069;32;20213;-61
2022/05/16 02:05:54;;;;;;;6.12;2.55;;;14.80;99.90;;;;;;7355777;32;20103;-61
2022/05/16 02:09:56;;;;;;;6.00;3.00;;;14.60;99.90;;;;;;7338716;32;20249;-60
2022/05/16 02:13:58;;;;;;;4.90;2.95;;;14.50;99.90;;;;;;7363225;32;20216;-61
2022/05/16 02:18:00;;;;;;;5.87;3.03;;;14.20;99.90;;;;;;7357780;32;20096;-61
2022/05/16 02:26:22;;;;;;;5.53;2.78;;;13.90;99.90;;;;;;7348032;32;20111;-60
2022/05/16 02:30:24;;;;;;;5.60;2.85;;;13.80;99.90;;;;;;7355204;32;20210;-60
2022/05/16 02:34:26;;;;;;;5.62;3.10;;;13.70;99.90;;;;;;7360000;32;20556;-61
2022/05/16 02:38:27;;;;;;;4.68;2.83;;;13.60;99.90;;;;;;7350281;32;20680;-61
2022/05/16 02:42:30;;;;;;;8.18;3.22;;;13.40;99.90;;;;;;7334701;32;20217;-61
2022/05/16 02:46:32;;;;;;;4.25;2.83;;;13.40;99.90;;;;;;7360712;32;20134;-61
2022/05/16 02:50:34;;;;;;;8.13;3.55;;;13.30;99.90;;;;;;7353818;32;20111;-62
2022/05/16 02:54:35;;;;;;;6.05;2.92;;;13.20;99.90;;;;;;7357159;32;20103;-62
2022/05/16 02:58:38;;;;;;;8.23;3.67;;;13.10;99.90;;;;;;7336547;32;20257;-62
2022/05/16 03:02:40;;;;;;;5.12;3.15;;;13.00;99.90;;;;;;7352827;32;20106;-62
2022/05/16 03:06:42;;;;;;;5.53;2.80;;;13.00;99.90;;;;;;7344077;32;20114;-62
2022/05/16 03:10:44;;;;;;;7.95;3.33;;;12.90;99.90;;;;;;7359746;32;20541;-62
2022/05/16 03:14:45;;;;;;;5.87;3.28;;;12.80;99.90;;;;;;7351459;32;20111;-62
2022/05/16 03:18:47;;;;;;;7.43;3.42;;;12.80;99.90;;;;;;7360016;32;20221;-62
2022/05/16 03:22:49;;;;;;;6.60;3.30;;;12.70;99.90;;;;;;7358483;32;20103;-62
2022/05/16 03:26:51;;;;;;;10.38;3.70;;;12.60;99.90;;;;;;7351856;32;20193;-61
2022/05/16 03:30:55;;;;;;;11.88;3.92;;;12.60;99.90;;;;;;7351195;32;20107;-61
2022/05/16 03:34:57;;;;;;;8.13;3.40;;;12.50;99.90;;;;;;7354618;32;20965;-62
2022/05/16 03:43:20;;;;;;;6.70;3.22;;;12.50;99.90;;;;;;7358300;32;20431;-62
2022/05/16 03:47:22;;;;;;;13.57;4.15;;;12.40;99.90;;;;;;7354839;32;20288;-61
2022/05/16 03:51:24;;;;;;;7.85;3.70;;;12.30;99.90;;;;;;7350412;32;20222;-62
2022/05/16 03:55:27;;;;;;;8.27;3.33;;;12.30;99.90;;;;;;7355500;32;20110;-61
2022/05/16 03:59:29;;;;;;;7.90;3.72;;;12.30;99.90;;;;;;7347095;32;20137;-62
2022/05/16 04:03:31;;;;;;;9.40;4.50;;;12.30;99.90;;;;;;7339442;32;20124;-62
2022/05/16 04:07:33;;;;;;;7.07;3.45;;;12.30;99.90;;;;;;7352070;32;20186;-62
2022/05/16 04:11:35;;;;;;;7.25;3.87;;;12.40;99.90;;;;;;7359219;32;20141;-61
2022/05/16 04:15:37;;;;;;;7.75;3.65;;;12.40;99.90;;;;;;7362432;32;20098;-61
2022/05/16 04:19:38;;;;;;;7.07;3.67;;;12.50;99.90;;;;;;7336917;32;20115;-62
2022/05/16 04:23:41;;;;;;;9.18;4.07;;;12.50;99.90;;;;;;7358395;32;20111;-63
2022/05/16 04:27:42;;;;;;;13.07;4.15;;;12.50;99.90;;;;;;7340675;32;20110;-62
2022/05/16 04:31:44;;;;;;;7.60;3.83;;;12.60;99.90;;;;;;7345220;32;20564;-62
2022/05/16 04:35:46;;;;;;;10.10;3.78;;;12.80;99.90;;;;;;7362415;32;20099;-60
2022/05/16 04:39:48;;;;;;;7.43;3.78;;;13.00;99.90;;;;;;7357744;32;20134;-60
2022/05/16 04:43:50;;;;;;;4.18;3.30;;;13.20;99.90;;;;;;7356020;32;20215;-60
2022/05/16 04:47:55;;;;;;;8.35;3.25;;;13.50;99.90;;;;;;7364917;32;20110;-65
2022/05/16 04:51:57;;;;;;;7.32;4.45;;;13.70;99.90;;;;;;7360886;32;20103;-65
2022/05/16 04:55:59;;;;;;;10.15;4.12;;;14.00;99.90;;;;;;7359206;32;20195;-65
2022/05/16 05:00:03;;;;;;;8.98;3.37;;;14.50;99.90;;;;;;7360848;32;20107;-64
2022/05/16 05:04:05;;;;;;;6.32;3.05;;;14.80;99.90;;;;;;7355458;32;20186;-65
2022/05/16 05:08:07;;;;;;;6.18;4.15;;;15.50;99.90;;;;;;7361743;32;20115;-65
2022/05/16 05:16:30;;;;;;;9.98;2.95;;;16.50;99.90;;;;;;7353994;32;20133;-64
2022/05/16 05:20:33;;;;;;;7.47;2.62;;;16.90;99.90;;;;;;7342975;32;20156;-65
2022/05/16 05:24:35;;;;;;;6.70;2.90;;;16.90;99.90;;;;;;7362221;32;20103;-64
2022/05/16 05:28:37;;;;;;;6.43;3.42;;;16.80;99.90;;;;;;7358597;32;20515;-69
2022/05/16 05:32:39;;;;;;;5.45;2.58;;;16.70;99.90;;;;;;7347474;32;20220;-68
2022/05/16 05:36:41;;;;;;;5.22;2.37;;;16.80;99.90;;;;;;7357763;32;20153;-66
2022/05/16 05:40:43;;;;;;;5.22;2.05;;;16.90;99.90;;;;;;7365556;32;20145;-66
2022/05/16 05:44:45;;;;;;;6.18;1.92;;;17.00;99.90;;;;;;7360581;32;20800;-66
2022/05/16 05:48:47;;;;;;;7.82;2.50;;;17.10;99.90;;;;;;7369558;32;20107;-67
2022/05/16 05:52:49;;;;;;;7.93;2.20;;;17.30;99.90;;;;;;7352124;32;20197;-67
2022/05/16 05:56:50;;;;;;;5.45;1.80;;;17.40;99.90;;;;;;7362568;32;20134;-66
2022/05/16 06:00:52;;;;;;;5.97;1.95;;;17.50;99.90;;;;;;7352030;32;20141;-66
2022/05/16 06:04:54;;;;;;;9.07;2.15;;;17.60;99.90;;;;;;7355573;32;20831;-64
2022/05/16 06:08:55;;;;;;;8.55;2.62;;;17.70;99.90;;;;;;7335731;32;20133;-63
2022/05/16 06:12:57;;;;;;;7.15;2.17;;;17.70;99.90;;;;;;7362645;32;20121;-65
2022/05/16 06:16:59;;;;;;;4.80;1.95;;;17.80;99.90;;;;;;7366372;32;20194;-65
2022/05/16 06:21:02;;;;;;;8.95;2.45;;;17.80;99.90;;;;;;7347973;32;20482;-65
2022/05/16 06:29:27;;;;;;;7.53;2.22;;;18.00;99.90;;;;;;7355904;32;20103;-65
2022/05/16 06:33:29;;;;;;;9.02;2.53;;;18.20;99.90;;;;;;7352584;32;20528;-64
2022/05/16 06:37:30;;;;;;;7.28;2.15;;;18.40;99.90;;;;;;7347944;32;20303;-64
2022/05/16 06:41:34;;;;;;;6.87;2.10;;;18.50;99.90;;;;;;7357435;32;20256;-65
2022/05/16 06:45:36;;;;;;;9.07;2.10;;;18.80;99.90;;;;;;7340295;32;20099;-64
2022/05/16 06:49:38;;;;;;;8.05;2.67;;;19.00;99.90;;;;;;7363036;32;20129;-65
2022/05/16 06:53:40;;;;;;;9.40;2.17;;;19.10;99.90;;;;;;7358488;32;20359;-65
2022/05/16 06:57:42;;;;;;;7.15;2.42;;;19.20;99.90;;;;;;7355108;32;20099;-64
2022/05/16 07:01:48;;;;;;;5.97;2.33;;;19.30;99.90;;;;;;7341564;32;20134;-65
2022/05/16 07:05:51;;;;;;;8.63;2.08;;;19.50;99.90;;;;;;7355242;32;20209;-66
2022/05/16 07:09:52;;;;;;;7.10;2.10;;;19.70;99.90;;;;;;7354901;32;20126;-65
2022/05/16 07:13:54;;;;;;;11.02;2.30;;;19.80;99.90;;;;;;7349590;32;20300;-65
2022/05/16 07:17:56;;;;;;;7.85;1.92;;;20.00;99.90;;;;;;7338837;32;20917;-65
2022/05/16 07:21:58;;;;;;;9.00;2.10;;;20.10;99.90;;;;;;7335947;32;20529;-65
2022/05/16 07:30:20;;;;;;;6.10;1.80;;;20.40;99.90;;;;;;7354614;32;20107;-64
2022/05/16 07:34:22;;;;;;;3.42;2.00;;;20.40;99.90;;;;;;7359753;32;20608;-64
2022/05/16 07:38:25;;;;;;;8.40;2.35;;;20.30;99.90;;;;;;7354321;32;20239;-64
2022/05/16 07:42:27;;;;;;;6.72;2.10;;;20.30;99.90;;;;;;7356012;32;20455;-65
2022/05/16 07:46:29;;;;;;;6.70;2.25;;;20.20;99.90;;;;;;7343485;32;20531;-65
2022/05/16 07:50:32;;;;;;;7.62;2.00;;;20.20;99.90;;;;;;7346951;32;20306;-65
2022/05/16 07:54:34;;;;;;;9.00;2.35;;;20.20;99.90;;;;;;7357338;32;20121;-65
2022/05/16 07:58:36;;;;;;;7.90;2.20;;;20.00;99.90;;;;;;7354407;32;20484;-66
2022/05/16 08:02:39;;;;;;;6.53;2.70;;;19.80;99.90;;;;;;7283709;32;20874;-65
2022/05/16 08:06:41;;;;;;;8.45;2.85;;;19.60;99.90;;;;;;7229887;32;20105;-65
2022/05/16 08:10:43;;;;;;;8.63;2.92;;;19.30;99.90;;;;;;7233970;32;20324;-65
2022/05/16 08:14:44;;;;;;;10.35;3.00;;;19.10;99.90;;;;;;7233618;32;20128;-66
2022/05/16 08:18:46;;;;;;;9.57;3.60;;;18.90;99.90;;;;;;7235316;32;20127;-64
2022/05/16 08:22:48;;;;;;;5.72;3.37;;;18.60;99.90;;;;;;7237038;32;20122;-64
2022/05/16 08:26:50;;;;;;;10.10;3.50;;;18.40;99.90;;;;;;7231200;32;20128;-64
2022/05/16 08:30:52;;;;;;;13.23;3.78;;;18.30;99.90;;;;;;7225515;32;20275;-65
2022/05/16 08:35:03;;;;;;;10.07;4.03;;;18.20;99.90;;;;;;7271948;32;20131;-64
2022/05/16 08:43:49;;;;;;;11.48;3.55;;;17.90;99.90;;;;;;7228333;32;20127;-65
2022/05/16 08:47:54;;;;;;;9.25;3.90;;;17.80;99.90;;;;;;7231674;32;20299;-63
2022/05/16 08:52:24;;;;;;;11.70;4.35;;;17.70;99.90;;;;;;7272205;32;20299;-64
2022/05/16 08:56:32;;;;;;;6.22;3.45;;;17.60;99.90;;;;;;7225940;32;20475;-64
2022/05/16 09:00:54;;;;;;;7.93;3.95;;;17.60;99.90;;;;;;7230827;32;20131;-64
2022/05/16 09:04:55;;;;;;;6.57;3.95;;;17.60;99.90;;;;;;7223991;32;20426;-64
2022/05/16 09:09:15;;;;;;;10.02;4.00;;;17.70;99.90;;;;;;7252004;32;20131;-65
2022/05/16 09:13:22;;;;;;;11.75;4.15;;;17.80;99.90;;;;;;7224016;32;20127;-63
2022/05/16 09:17:43;;;;;;;8.50;3.60;;;18.10;99.90;;;;;;7273778;32;20112;-64
2022/05/16 09:21:57;;;;;;;15.55;3.80;;;18.40;99.90;;;;;;7283527;32;20136;-65
2022/05/16 09:26:11;;;;;;;10.40;3.50;;;18.80;99.90;;;;;;7283446;32;20247;-66
2022/05/16 09:30:16;;;;;;;8.38;3.67;;;19.70;99.90;;;;;;7240059;32;20753;-65
2022/05/16 09:34:18;;;;;;;6.18;2.95;;;20.40;99.90;;;;;;7229027;32;20113;-64
2022/05/16 09:38:22;;;;;;;5.78;2.85;;;20.90;99.90;;;;;;7238805;32;20227;-65
2022/05/16 09:42:32;;;;;;;9.43;2.80;;;21.40;99.90;;;;;;7235686;32;20168;-65
2022/05/16 09:46:37;;;;;;;7.35;2.45;;;22.20;99.90;;;;;;7237739;32;20120;-64
2022/05/16 09:50:39;;;;;;;7.10;2.40;;;23.80;99.90;;;;;;7234690;32;20183;-66
2022/05/16 09:54:41;;;;;;;4.95;2.55;;;24.80;99.90;;;;;;7240366;32;20113;-66
2022/05/16 09:58:51;;;;;;;3.62;1.92;;;24.80;99.90;;;;;;7231904;32;20882;-66
2022/05/16 10:03:19;;;;;;;6.15;1.95;;;24.30;99.90;;;;;;7309963;32;20551;-65
2022/05/16 10:07:28;;;;;;;5.07;2.20;;;24.20;99.90;;;;;;7357814;32;20466;-65
2022/05/16 10:11:31;;;;;;;8.15;2.67;;;24.30;99.90;;;;;;7355340;32;20203;-66
2022/05/16 10:15:36;;;;;;;5.57;2.10;;;24.20;99.90;;;;;;7340918;32;20117;-66
2022/05/16 10:19:40;;;;;;;5.68;2.30;;;24.40;99.90;;;;;;7349431;32;20129;-66
2022/05/16 10:23:44;;;;;;;6.20;2.10;;;25.50;99.90;;;;;;7347833;32;20121;-67
2022/05/16 10:27:48;;;;;;;4.70;1.90;;;26.40;99.90;;;;;;7355337;32;20503;-67
2022/05/16 10:36:30;;;;;;;5.62;1.90;;;27.50;99.90;;;;;;7355357;32;20142;-66
2022/05/16 10:40:44;;;;;;;6.37;2.10;;;28.00;99.90;;;;;;7357641;32;20121;-67
2022/05/16 10:45:02;;;;;;;6.53;2.47;;;28.00;99.90;;;;;;7358565;32;20107;-66
2022/05/16 10:49:10;;;;;;;5.90;2.30;;;28.00;99.90;;;;;;7351891;32;20523;-66
2022/05/16 10:53:21;;;;;;;4.10;2.17;;;28.10;99.90;;;;;;7351939;32;20107;-67
2022/05/16 10:57:31;;;;;;;7.97;2.03;;;27.70;99.60;;;;;;7339942;32;20181;-66
2022/05/16 11:01:53;;;;;;;10.00;2.28;;;27.00;98.80;;;;;;7354441;32;20163;-67
2022/05/16 11:06:23;;;;;;;6.62;2.25;;;27.20;99.90;;;;;;7344345;32;20455;-67
2022/05/16 11:10:32;;;;;;;7.00;1.95;;;27.30;98.70;;;;;;7339824;32;20114;-64
2022/05/16 11:14:48;;;;;;;8.63;2.47;;;26.70;96.30;;;;;;7329116;32;20725;-67
2022/05/16 11:19:21;;;;;;;5.75;2.37;;;26.40;99.30;;;;;;7365871;32;20257;-67
2022/05/16 11:23:45;;;;;;;9.10;2.37;;;26.70;99.00;;;;;;7355953;32;20262;-62
2022/05/16 11:28:40;;;;;;;4.40;1.77;;;26.90;99.20;;;;;;7344438;32;20107;-64
2022/05/16 11:33:17;;;;;;;6.87;1.92;;;26.90;98.80;;;;;;7244720;32;20230;-65
2022/05/16 11:37:45;;;;;;;7.35;1.83;;;27.10;95.60;;;;;;7321146;32;20103;-64
2022/05/16 11:42:07;;;;;;;5.43;2.05;;;27.40;94.10;;;;;;7350357;32;20642;-63
2022/05/16 11:46:17;;;;;;;5.80;2.03;;;27.00;95.00;;;;;;7342225;32;20152;-65
2022/05/16 11:50:41;;;;;;;6.62;2.40;;;26.30;96.30;;;;;;7356681;32;20242;-64
2022/05/16 11:54:56;;;;;;;7.40;2.05;;;25.90;97.00;;;;;;7344890;32;20134;-63
2022/05/16 12:03:43;;;;;;;5.78;2.62;;;25.00;99.90;;;;;;7357263;32;20222;-63
2022/05/16 12:07:49;;;;;;;6.70;3.30;;;24.30;99.90;;;;;;7353391;32;20598;-64
2022/05/16 12:12:26;;;;;;;5.43;2.83;;;23.80;99.90;;;;;;7358313;32;20296;-65
2022/05/16 12:16:36;;;;;;;9.25;3.17;;;23.60;99.90;;;;;;7358271;32;20118;-63
2022/05/16 12:20:44;;;;;;;7.82;3.03;;;23.50;99.90;;;;;;7354057;32;20156;-63
2022/05/16 12:24:52;;;;;;;6.18;2.83;;;23.70;99.90;;;;;;7342370;32;20473;-64
2022/05/16 12:29:15;;;;;;;13.18;3.40;;;24.00;99.90;;;;;;7353178;32;20095;-62
2022/05/16 12:33:26;;;;;;;7.05;2.70;;;24.50;99.90;;;;;;7350072;32;20095;-64
2022/05/16 12:37:27;;;;;;;6.30;2.92;;;24.70;99.90;;;;;;7336958;32;20535;-67
2022/05/16 12:41:55;;;;;;;10.32;3.20;;;24.80;99.90;;;;;;7350213;32;20750;-67
2022/05/16 12:46:03;;;;;;;11.07;3.12;;;24.80;99.90;;;;;;7357377;32;20269;-67
2022/05/16 12:50:23;;;;;;;8.95;2.78;;;24.80;99.90;;;;;;7353019;32;20210;-67
2022/05/16 12:55:10;;;;;;;7.05;3.00;;;24.70;99.90;;;;;;7334576;32;20182;-66
2022/05/16 12:59:42;;;;;;;8.40;3.20;;;24.80;99.90;;;;;;7343330;32;20126;-67
2022/05/16 13:04:08;;;;;;;6.40;3.47;;;24.50;99.90;;;;;;7341768;32;20118;-66
2022/05/16 13:08:31;;;;;;;9.27;3.42;;;24.10;99.90;;;;;;7334479;32;20355;-66
2022/05/16 13:12:53;;;;;;;11.25;3.53;;;24.10;99.90;;;;;;7315390;32;20267;-66
2022/05/16 13:17:12;;;;;;;12.37;4.28;;;23.90;99.90;;;;;;7332127;32;20190;-66
2022/05/16 13:21:15;;;;;;;11.73;4.53;;;23.70;99.90;;;;;;7332548;32;20622;-65
2022/05/16 13:25:20;;;;;;;14.07;5.78;;;23.20;99.90;;;;;;7341513;32;20510;-66
2022/05/16 13:29:22;;;;;;;11.48;6.65;;;22.40;99.90;;;;;;7350287;32;20154;-66
2022/05/16 13:33:28;;;;;;;14.70;7.50;;;21.70;99.90;;;;;;7359018;32;20292;-66
2022/05/16 13:37:51;;;;;;;10.15;6.85;;;21.20;99.90;;;;;;7360149;32;20245;-63
2022/05/16 13:41:58;;;;;;;8.68;5.22;;;20.80;99.90;;;;;;7352118;32;20130;-66
2022/05/16 13:46:01;;;;;;;14.85;6.20;;;20.50;99.90;;;;;;7356809;32;20438;-66
2022/05/16 13:50:03;;;;;;;13.13;7.10;;;20.20;99.90;;;;;;7336305;32;20189;-65
2022/05/16 13:54:06;;;;;;;12.70;7.55;;;19.90;99.90;;;;;;7332171;32;20890;-65
2022/05/16 13:58:08;;;;;;;13.73;7.60;;;19.80;99.90;;;;;;7326663;32;44510;-67
2022/05/16 14:02:15;;;;;;;11.07;7.78;;;19.70;99.90;;;;;;7340865;32;20242;-65
2022/05/16 14:06:30;;;;;;;14.77;7.70;;;19.50;99.90;;;;;;7316664;32;20253;-66
2022/05/16 14:10:34;;;;;;;21.95;13.80;;;19.40;99.90;;;;;;7318935;32;20519;-67
2022/05/16 14:14:37;;;;;;;13.20;8.50;;;19.40;99.90;;;;;;7328158;32;20629;-65
2022/05/16 14:18:59;;;;;;;12.60;6.85;;;19.40;99.90;;;;;;7336564;32;20338;-65
2022/05/16 14:23:01;;;;;;;12.02;6.50;;;19.30;99.90;;;;;;7334138;32;20542;-65
2022/05/16 14:27:18;;;;;;;13.70;6.32;;;19.10;99.90;;;;;;7315699;32;20222;-66
2022/05/16 14:31:25;;;;;;;13.82;6.47;;;19.10;99.90;;;;;;7335362;32;20202;-65
2022/05/16 14:35:28;;;;;;;10.65;6.53;;;19.20;99.90;;;;;;7318073;32;20224;-65
2022/05/16 14:39:32;;;;;;;12.18;6.93;;;19.00;99.90;;;;;;7329421;32;20854;-65
2022/05/16 14:43:37;;;;;;;10.73;6.95;;;19.00;99.90;;;;;;7354918;32;20107;-65
2022/05/16 14:47:41;;;;;;;12.02;8.68;;;19.10;99.90;;;;;;7331145;32;20764;-65
2022/05/16 14:51:47;;;;;;;16.52;9.68;;;19.20;99.90;;;;;;7335037;32;20807;-64
2022/05/16 14:55:51;;;;;;;11.48;8.43;;;19.40;99.90;;;;;;7347427;32;20877;-65
2022/05/16 14:59:53;;;;;;;14.10;8.60;;;19.30;99.90;;;;;;7332201;32;20240;-65
2022/05/16 15:04:04;;;;;;;14.82;10.13;;;19.60;99.90;;;;;;7331968;32;20563;-65
2022/05/16 15:08:08;;;;;;;16.10;9.55;;;19.70;99.90;;;;;;7333071;32;20141;-64
2022/05/16 15:12:11;;;;;;;13.20;9.13;;;19.80;99.90;;;;;;7357776;32;20474;-65
2022/05/16 15:16:13;;;;;;;11.50;8.30;;;19.90;99.90;;;;;;7344603;32;20135;-65
2022/05/16 15:20:15;;;;;;;12.63;7.47;;;20.10;99.90;;;;;;7365221;32;20821;-66
2022/05/16 15:24:27;;;;;;;12.55;6.70;;;20.10;99.90;;;;;;7358434;32;20652;-65
2022/05/16 15:28:46;;;;;;;11.95;6.20;;;20.00;99.90;;;;;;7357242;32;20118;-65
2022/05/16 15:32:50;;;;;;;14.40;7.15;;;20.00;99.90;;;;;;7352393;32;20579;-66
2022/05/16 15:36:52;;;;;;;8.88;5.87;;;20.00;99.90;;;;;;7348276;32;20351;-66
2022/05/16 15:40:54;;;;;;;10.15;6.00;;;20.00;99.90;;;;;;7348926;32;20137;-66
2022/05/16 15:45:01;;;;;;;11.82;6.30;;;20.00;99.90;;;;;;7349733;32;20107;-64
2022/05/16 15:49:04;;;;;;;9.75;6.32;;;20.00;99.90;;;;;;7359122;32;20234;-65
2022/05/16 15:53:08;;;;;;;8.65;5.90;;;20.00;99.90;;;;;;7359353;32;20244;-64
2022/05/16 15:57:10;;;;;;;15.57;6.22;;;20.00;99.90;;;;;;7360530;32;20130;-66
2022/05/16 16:01:16;;;;;;;10.40;6.47;;;20.10;99.90;;;;;;7348780;32;20119;-66
2022/05/16 16:09:42;;;;;;;8.57;5.93;;;20.10;99.90;;;;;;7352545;32;20111;-66
2022/05/16 16:13:44;;;;;;;12.32;6.28;;;20.00;99.90;;;;;;7339965;32;20133;-65
2022/05/16 16:17:46;;;;;;;11.05;6.78;;;20.00;99.90;;;;;;7359942;32;20115;-65
2022/05/16 16:21:49;;;;;;;12.32;6.93;;;20.10;99.90;;;;;;7366737;32;20166;-65
2022/05/16 16:25:53;;;;;;;12.45;7.03;;;20.10;99.90;;;;;;7365019;32;20220;-65
2022/05/16 16:29:55;;;;;;;14.82;7.57;;;20.10;99.90;;;;;;7364726;32;20125;-65
2022/05/16 16:33:58;;;;;;;11.48;7.03;;;20.20;99.90;;;;;;7361892;32;20107;-66
2022/05/16 16:38:05;;;;;;;11.48;7.07;;;20.20;99.90;;;;;;7358356;32;20612;-65
2022/05/16 16:42:08;;;;;;;12.48;7.90;;;20.20;99.90;;;;;;7362418;32;20162;-65
2022/05/16 16:46:13;;;;;;;10.05;6.45;;;20.20;99.90;;;;;;7362916;32;20745;-66
2022/05/16 16:50:17;;;;;;;14.43;7.05;;;20.10;99.90;;;;;;7368831;32;20394;-65
2022/05/16 16:58:41;;;;;;;12.82;7.87;;;20.00;99.90;;;;;;7362230;32;20304;-66
2022/05/16 17:02:54;;;;;;;11.12;7.05;;;20.00;99.90;;;;;;7348381;32;20137;-66
2022/05/16 17:06:56;;;;;;;12.35;7.47;;;20.00;99.90;;;;;;7350778;32;20481;-65
2022/05/16 17:11:00;;;;;;;11.57;6.93;;;20.00;99.90;;;;;;7348187;32;20323;-65
2022/05/16 17:15:02;;;;;;;13.40;7.03;;;20.00;99.90;;;;;;7368898;32;20439;-66
2022/05/16 17:19:05;;;;;;;9.45;6.97;;;20.10;99.90;;;;;;7362747;32;20346;-65
2022/05/16 17:23:11;;;;;;;11.50;6.68;;;20.30;99.90;;;;;;7366381;32;20588;-65
2022/05/16 17:27:13;;;;;;;11.60;6.53;;;20.30;99.90;;;;;;7354624;32;20246;-65
2022/05/16 17:31:17;;;;;;;10.27;6.50;;;20.40;99.90;;;;;;7362267;32;20129;-65
2022/05/16 17:35:22;;;;;;;9.73;5.65;;;20.40;99.90;;;;;;7354987;32;20135;-66
2022/05/16 17:39:23;;;;;;;11.27;5.53;;;20.30;99.90;;;;;;7354954;32;20140;-65
2022/05/16 17:43:25;;;;;;;16.02;7.07;;;20.40;99.90;;;;;;7348975;32;20111;-65
2022/05/16 17:47:27;;;;;;;9.70;5.25;;;20.40;99.90;;;;;;7358686;32;20589;-66
2022/05/16 17:51:31;;;;;;;10.43;5.03;;;20.40;99.90;;;;;;7364060;32;20559;-65
2022/05/16 17:55:33;;;;;;;11.27;5.18;;;20.40;99.90;;;;;;7354972;32;20199;-65
2022/05/16 17:59:34;;;;;;;14.85;4.82;;;20.30;99.90;;;;;;7352456;32;20499;-65
2022/05/16 18:03:36;;;;;;;6.80;3.95;;;20.30;99.90;;;;;;7355444;32;20142;-63
2022/05/16 18:07:39;;;;;;;7.18;4.25;;;20.20;99.90;;;;;;7349388;32;20134;-66
2022/05/16 18:16:02;;;;;;;7.18;3.25;;;20.10;99.90;;;;;;7356630;32;20232;-65
2022/05/16 18:20:06;;;;;;;7.28;3.40;;;20.20;99.90;;;;;;7361635;32;20119;-65
2022/05/16 18:24:10;;;;;;;6.85;3.85;;;20.00;99.90;;;;;;7362621;32;20114;-67
2022/05/16 18:28:11;;;;;;;7.70;3.62;;;19.90;99.90;;;;;;7357739;32;20198;-71
2022/05/16 18:32:15;;;;;;;11.07;4.25;;;19.90;99.90;;;;;;7359198;32;20249;-70
2022/05/16 18:36:18;;;;;;;9.35;3.65;;;19.80;99.90;;;;;;7355507;32;20183;-70
2022/05/16 18:40:20;;;;;;;11.27;3.95;;;19.60;99.90;;;;;;7351618;32;20206;-67
2022/05/16 18:53:02;;;;;;;9.77;3.62;;;19.40;99.90;;;;;;7362777;32;20190;-68
2022/05/16 18:57:04;;;;;;;12.70;4.00;;;19.30;99.90;;;;;;7351769;32;20131;-69
2022/05/16 19:01:08;;;;;;;9.55;4.28;;;19.30;99.90;;;;;;7364780;32;20289;-69
2022/05/16 19:05:13;;;;;;;6.00;4.00;;;19.20;99.90;;;;;;7364188;32;20115;-68
2022/05/16 19:09:15;;;;;;;12.27;4.57;;;19.00;99.90;;;;;;7358271;32;20102;-69
2022/05/16 19:13:18;;;;;;;9.18;4.70;;;18.90;99.90;;;;;;7361104;32;20142;-69
2022/05/16 19:17:19;;;;;;;11.02;5.62;;;18.80;99.90;;;;;;7361466;32;20114;-68
2022/05/16 19:21:28;;;;;;;9.88;5.62;;;18.70;99.90;;;;;;7362583;32;20553;-67
2022/05/16 19:25:30;;;;;;;7.25;4.30;;;18.50;99.90;;;;;;7357879;32;20569;-70
2022/05/16 19:33:53;;;;;;;14.75;8.25;;;18.20;99.90;;;;;;7361881;32;20230;-68
2022/05/16 19:37:56;;;;;;;14.73;6.10;;;18.00;99.90;;;;;;7358405;32;20111;-67
2022/05/16 19:41:57;;;;;;;7.35;5.40;;;17.80;99.90;;;;;;7337846;32;20126;-67
2022/05/16 19:45:59;;;;;;;16.23;6.07;;;17.60;99.90;;;;;;7367759;32;20186;-67
2022/05/16 19:50:01;;;;;;;9.57;5.47;;;17.40;99.90;;;;;;7357153;32;20388;-64
2022/05/16 19:54:05;;;;;;;11.15;5.50;;;17.30;99.90;;;;;;7348632;32;20198;-68
2022/05/16 19:58:07;;;;;;;9.07;6.30;;;17.10;99.90;;;;;;7365802;32;20143;-67
2022/05/16 20:02:09;;;;;;;13.32;6.05;;;16.90;99.90;;;;;;7348190;32;20230;-68
2022/05/16 20:06:12;;;;;;;10.85;6.12;;;16.70;99.90;;;;;;7368641;32;20134;-68
2022/05/16 20:10:15;;;;;;;8.68;6.72;;;16.50;99.90;;;;;;7342381;32;20130;-67
2022/05/16 20:14:19;;;;;;;11.27;6.47;;;16.40;99.90;;;;;;7348431;32;20110;-68
2022/05/16 20:18:20;;;;;;;12.37;6.68;;;16.30;99.90;;;;;;7350576;32;20446;-67
2022/05/16 20:26:43;;;;;;;10.25;7.10;;;16.10;99.90;;;;;;7347874;32;20115;-67
2022/05/16 20:30:51;;;;;;;18.87;11.65;;;16.00;99.90;;;;;;7359066;32;20130;-66
2022/05/16 20:34:53;;;;;;;11.98;7.25;;;15.80;99.90;;;;;;7362396;32;21106;-68
2022/05/16 20:39:02;;;;;;;10.13;6.90;;;15.70;99.90;;;;;;7345708;32;20293;-67
2022/05/16 20:43:04;;;;;;;14.93;7.62;;;15.60;99.90;;;;;;7358714;32;20156;-66
2022/05/16 20:47:06;;;;;;;11.55;6.75;;;15.50;99.90;;;;;;7342839;32;20618;-66
2022/05/16 20:51:09;;;;;;;13.02;7.15;;;15.40;99.90;;;;;;7359081;32;20519;-66
2022/05/16 20:55:14;;;;;;;14.32;7.70;;;15.20;99.90;;;;;;7357853;32;20106;-65
2022/05/16 20:59:16;;;;;;;11.90;8.05;;;15.10;99.90;;;;;;7346519;32;20241;-64
2022/05/16 21:03:18;;;;;;;10.75;7.95;;;15.10;99.90;;;;;;7354734;32;20228;-65
2022/05/16 21:07:20;;;;;;;10.88;8.15;;;15.00;99.90;;;;;;7359951;32;20290;-67
2022/05/16 21:11:23;;;;;;;15.27;8.20;;;14.90;99.90;;;;;;7363198;32;20222;-67
2022/05/16 21:15:25;;;;;;;13.52;8.15;;;14.90;99.90;;;;;;7369358;32;20230;-64
2022/05/16 21:19:26;;;;;;;13.05;8.30;;;14.70;99.90;;;;;;7356895;32;20110;-66
2022/05/16 21:23:29;;;;;;;9.68;8.10;;;14.70;99.90;;;;;;7364217;32;20107;-66
2022/05/16 21:27:35;;;;;;;11.30;8.02;;;14.50;99.90;;;;;;7363438;32;20107;-65
2022/05/16 21:31:36;;;;;;;12.60;7.93;;;14.40;99.90;;;;;;7356409;32;20111;-65
2022/05/16 21:35:38;;;;;;;11.12;7.95;;;14.40;99.90;;;;;;7360853;32;20141;-62
2022/05/16 21:39:40;;;;;;;9.73;7.55;;;14.30;99.90;;;;;;7364157;32;20238;-61
2022/05/16 21:48:04;;;;;;;9.88;8.25;;;14.10;99.90;;;;;;7344906;32;20364;-63
2022/05/16 21:52:06;;;;;;;9.40;8.07;;;14.00;99.90;;;;;;7364029;32;20146;-63
2022/05/16 21:56:09;;;;;;;15.02;8.68;;;13.90;99.90;;;;;;7365320;32;21097;-62
2022/05/16 22:00:26;;;;;;;14.80;9.02;;;13.90;99.90;;;;;;7364467;32;20542;-62
2022/05/16 22:04:28;;;;;;;12.97;8.13;;;13.90;99.90;;;;;;7213771;32;20224;-62
2022/05/16 22:08:29;;;;;;;14.32;9.13;;;13.80;99.90;;;;;;7236248;32;20266;-62
2022/05/16 22:12:31;;;;;;;14.60;8.98;;;13.80;99.90;;;;;;7208348;32;20147;-62
2022/05/16 22:16:33;;;;;;;14.18;8.65;;;13.70;99.90;;;;;;7222964;32;20290;-62
2022/05/16 22:20:36;;;;;;;11.52;8.55;;;13.60;99.90;;;;;;7212310;32;20110;-62
2022/05/16 22:24:38;;;;;;;11.85;9.15;;;13.50;99.90;;;;;;7245911;32;20363;-62
2022/05/16 22:28:39;;;;;;;12.20;8.32;;;13.50;99.90;;;;;;7233812;32;20147;-61